sensor_id;sensor_type;location;lat;lon;timestamp;temperature;humidity
20534;DHT22;12929;56.822;26.056;2022-07-05T00:01:35;18.70;99.90
20534;DHT22;12929;56.822;26.056;2022-07-05T00:04:03;18.60;99.90
20534;DHT22;12929;56.822;26.056;2022-07-05T00:06:30;18.70;99.90
20534;DHT22;12929;56.822;26.056;2022-07-05T00:08:58;18.60;99.90
20534;DHT22;12929;56.822;26.056;2022-07-05T00:11:26;18.60;99.90
20534;DHT22;12929;56.822;26.056;2022-07-05T00:13:53;18.60;99.90
20534;DHT22;12929;56.822;26.056;2022-07-05T00:16:23;18.50;99.90
20534;DHT22;12929;56.822;26.056;2022-07-05T00:18:51;18.50;99.90
20534;DHT22;12929;56.822;26.056;2022-07-05T00:21:19;18.50;99.90
20534;DHT22;12929;56.822;26.056;2022-07-05T00:23:46;18.60;99.90
20534;DHT22;12929;56.822;26.056;2022-07-05T00:26:14;18.70;99.90
20534;DHT22;12929;56.822;26.056;2022-07-05T00:28:41;18.60;99.90
20534;DHT22;12929;56.822;26.056;2022-07-05T00:31:09;18.50;99.90
20534;DHT22;12929;56.822;26.056;2022-07-05T00:33:37;18.50;99.90
20534;DHT22;12929;56.822;26.056;2022-07-05T00:36:04;18.50;99.90
20534;DHT22;12929;56.822;26.056;2022-07-05T00:38:32;18.40;99.90
20534;DHT22;12929;56.822;26.056;2022-07-05T00:41:00;18.30;99.90
20534;DHT22;12929;56.822;26.056;2022-07-05T00:43:28;18.30;99.90
20534;DHT22;12929;56.822;26.056;2022-07-05T00:45:56;18.30;99.90
20534;DHT22;12929;56.822;26.056;2022-07-05T00:48:24;18.20;99.90
20534;DHT22;12929;56.822;26.056;2022-07-05T00:50:52;18.20;99.90
20534;DHT22;12929;56.822;26.056;2022-07-05T00:53:19;18.20;99.90
20534;DHT22;12929;56.822;26.056;2022-07-05T00:55:47;18.20;99.90
20534;DHT22;12929;56.822;26.056;2022-07-05T00:58:15;18.10;99.90
20534;DHT22;12929;56.822;26.056;2022-07-05T01:00:43;18.00;99.90
20534;DHT22;12929;56.822;26.056;2022-07-05T01:03:10;18.00;99.90
20534;DHT22;12929;56.822;26.056;2022-07-05T01:05:40;18.10;99.90
20534;DHT22;12929;56.822;26.056;2022-07-05T01:08:08;18.10;99.90
20534;DHT22;12929;56.822;26.056;2022-07-05T01:10:36;18.10;99.90
20534;DHT22;12929;56.822;26.056;2022-07-05T01:13:04;18.10;99.90
20534;DHT22;12929;56.822;26.056;2022-07-05T01:15:33;18.10;99.90
20534;DHT22;12929;56.822;26.056;2022-07-05T01:18:00;18.00;99.90
20534;DHT22;12929;56.822;26.056;2022-07-05T01:20:28;17.90;99.90
20534;DHT22;12929;56.822;26.056;2022-07-05T01:22:57;17.90;99.90
20534;DHT22;12929;56.822;26.056;2022-07-05T01:25:27;17.90;99.90
20534;DHT22;12929;56.822;26.056;2022-07-05T01:27:58;17.80;99.90
20534;DHT22;12929;56.822;26.056;2022-07-05T01:30:26;17.90;99.90
20534;DHT22;12929;56.822;26.056;2022-07-05T01:32:53;17.80;99.90
20534;DHT22;12929;56.822;26.056;2022-07-05T01:35:22;17.90;99.90
20534;DHT22;12929;56.822;26.056;2022-07-05T01:37:51;17.90;99.90
20534;DHT22;12929;56.822;26.056;2022-07-05T01:40:20;17.80;99.90
20534;DHT22;12929;56.822;26.056;2022-07-05T01:42:48;17.90;99.90
20534;DHT22;12929;56.822;26.056;2022-07-05T01:45:16;17.80;99.90
20534;DHT22;12929;56.822;26.056;2022-07-05T01:48:11;17.80;99.90
20534;DHT22;12929;56.822;26.056;2022-07-05T01:50:53;17.70;99.90
20534;DHT22;12929;56.822;26.056;2022-07-05T01:53:28;17.70;99.90
20534;DHT22;12929;56.822;26.056;2022-07-05T01:55:57;17.70;99.90
20534;DHT22;12929;56.822;26.056;2022-07-05T01:58:25;17.70;99.90
20534;DHT22;12929;56.822;26.056;2022-07-05T02:00:54;17.70;99.90
20534;DHT22;12929;56.822;26.056;2022-07-05T02:03:25;17.70;99.90
20534;DHT22;12929;56.822;26.056;2022-07-05T02:06:13;17.70;99.90
20534;DHT22;12929;56.822;26.056;2022-07-05T02:08:41;17.60;99.90
20534;DHT22;12929;56.822;26.056;2022-07-05T02:11:09;17.60;99.90
20534;DHT22;12929;56.822;26.056;2022-07-05T02:13:38;17.50;99.90
20534;DHT22;12929;56.822;26.056;2022-07-05T02:16:08;17.50;99.90
20534;DHT22;12929;56.822;26.056;2022-07-05T02:18:36;17.60;99.90
20534;DHT22;12929;56.822;26.056;2022-07-05T02:21:04;17.50;99.90
20534;DHT22;12929;56.822;26.056;2022-07-05T02:23:32;17.50;99.90
20534;DHT22;12929;56.822;26.056;2022-07-05T02:26:00;17.50;99.90
20534;DHT22;12929;56.822;26.056;2022-07-05T02:28:28;17.50;99.90
20534;DHT22;12929;56.822;26.056;2022-07-05T02:30:57;17.40;99.90
20534;DHT22;12929;56.822;26.056;2022-07-05T02:33:25;17.50;99.90
20534;DHT22;12929;56.822;26.056;2022-07-05T02:35:53;17.50;99.90
20534;DHT22;12929;56.822;26.056;2022-07-05T02:38:21;17.60;99.90
20534;DHT22;12929;56.822;26.056;2022-07-05T02:40:49;17.50;99.90
20534;DHT22;12929;56.822;26.056;2022-07-05T02:43:17;17.60;99.90
20534;DHT22;12929;56.822;26.056;2022-07-05T02:45:46;17.60;99.90
20534;DHT22;12929;56.822;26.056;2022-07-05T02:48:14;17.50;99.90
20534;DHT22;12929;56.822;26.056;2022-07-05T02:50:42;17.50;99.90
20534;DHT22;12929;56.822;26.056;2022-07-05T02:53:11;17.50;99.90
20534;DHT22;12929;56.822;26.056;2022-07-05T02:55:39;17.50;99.90
20534;DHT22;12929;56.822;26.056;2022-07-05T02:58:06;17.40;99.90
20534;DHT22;12929;56.822;26.056;2022-07-05T03:00:35;17.40;99.90
20534;DHT22;12929;56.822;26.056;2022-07-05T03:03:03;17.40;99.90
20534;DHT22;12929;56.822;26.056;2022-07-05T03:05:32;17.40;99.90
20534;DHT22;12929;56.822;26.056;2022-07-05T03:08:03;17.40;99.90
20534;DHT22;12929;56.822;26.056;2022-07-05T03:10:33;17.50;99.90
20534;DHT22;12929;56.822;26.056;2022-07-05T03:13:03;17.40;99.90
20534;DHT22;12929;56.822;26.056;2022-07-05T03:15:31;17.50;99.90
20534;DHT22;12929;56.822;26.056;2022-07-05T03:18:00;17.40;99.90
20534;DHT22;12929;56.822;26.056;2022-07-05T03:20:30;17.50;99.90
20534;DHT22;12929;56.822;26.056;2022-07-05T03:22:58;17.50;99.90
20534;DHT22;12929;56.822;26.056;2022-07-05T03:25:34;17.40;99.90
20534;DHT22;12929;56.822;26.056;2022-07-05T03:28:04;17.50;99.90
20534;DHT22;12929;56.822;26.056;2022-07-05T03:30:32;17.40;99.90
20534;DHT22;12929;56.822;26.056;2022-07-05T03:33:00;17.40;99.90
20534;DHT22;12929;56.822;26.056;2022-07-05T03:35:30;17.40;99.90
20534;DHT22;12929;56.822;26.056;2022-07-05T03:37:59;17.40;99.90
20534;DHT22;12929;56.822;26.056;2022-07-05T03:40:26;17.40;99.90
20534;DHT22;12929;56.822;26.056;2022-07-05T03:42:55;17.40;99.90
20534;DHT22;12929;56.822;26.056;2022-07-05T03:45:25;17.40;99.90
20534;DHT22;12929;56.822;26.056;2022-07-05T03:47:57;17.40;99.90
20534;DHT22;12929;56.822;26.056;2022-07-05T03:50:44;17.40;99.90
20534;DHT22;12929;56.822;26.056;2022-07-05T03:53:12;17.40;99.90
20534;DHT22;12929;56.822;26.056;2022-07-05T03:55:41;17.40;99.90
20534;DHT22;12929;56.822;26.056;2022-07-05T03:58:10;17.40;99.90
20534;DHT22;12929;56.822;26.056;2022-07-05T04:00:38;17.40;99.90
20534;DHT22;12929;56.822;26.056;2022-07-05T04:03:08;17.50;99.90
20534;DHT22;12929;56.822;26.056;2022-07-05T04:05:36;17.40;99.90
20534;DHT22;12929;56.822;26.056;2022-07-05T04:08:04;17.50;99.90
20534;DHT22;12929;56.822;26.056;2022-07-05T04:10:38;17.60;99.90
20534;DHT22;12929;56.822;26.056;2022-07-05T04:13:07;17.50;99.90
20534;DHT22;12929;56.822;26.056;2022-07-05T04:15:34;17.40;99.90
20534;DHT22;12929;56.822;26.056;2022-07-05T04:18:04;17.40;99.90
20534;DHT22;12929;56.822;26.056;2022-07-05T04:20:35;17.40;99.90
20534;DHT22;12929;56.822;26.056;2022-07-05T04:23:04;17.40;99.90
20534;DHT22;12929;56.822;26.056;2022-07-05T04:25:32;17.50;99.90
20534;DHT22;12929;56.822;26.056;2022-07-05T04:28:08;17.50;99.90
20534;DHT22;12929;56.822;26.056;2022-07-05T04:30:38;17.50;99.90
20534;DHT22;12929;56.822;26.056;2022-07-05T04:33:08;17.50;99.90
20534;DHT22;12929;56.822;26.056;2022-07-05T04:35:37;17.50;99.90
20534;DHT22;12929;56.822;26.056;2022-07-05T04:38:05;17.50;99.90
20534;DHT22;12929;56.822;26.056;2022-07-05T04:40:35;17.50;99.90
20534;DHT22;12929;56.822;26.056;2022-07-05T04:43:04;17.50;99.90
20534;DHT22;12929;56.822;26.056;2022-07-05T04:45:32;17.50;99.90
20534;DHT22;12929;56.822;26.056;2022-07-05T04:48:00;17.60;99.90
20534;DHT22;12929;56.822;26.056;2022-07-05T04:50:29;17.60;99.90
20534;DHT22;12929;56.822;26.056;2022-07-05T04:52:57;17.60;99.90
20534;DHT22;12929;56.822;26.056;2022-07-05T04:55:25;17.60;99.90
20534;DHT22;12929;56.822;26.056;2022-07-05T04:57:53;17.60;99.90
20534;DHT22;12929;56.822;26.056;2022-07-05T05:00:21;17.70;99.90
20534;DHT22;12929;56.822;26.056;2022-07-05T05:02:48;17.70;99.90
20534;DHT22;12929;56.822;26.056;2022-07-05T05:05:16;17.70;99.90
20534;DHT22;12929;56.822;26.056;2022-07-05T05:07:45;17.70;99.90
20534;DHT22;12929;56.822;26.056;2022-07-05T05:10:12;17.70;99.90
20534;DHT22;12929;56.822;26.056;2022-07-05T05:12:40;17.70;99.90
20534;DHT22;12929;56.822;26.056;2022-07-05T05:15:08;17.60;99.90
20534;DHT22;12929;56.822;26.056;2022-07-05T05:17:38;17.60;99.90
20534;DHT22;12929;56.822;26.056;2022-07-05T05:20:11;17.70;99.90
20534;DHT22;12929;56.822;26.056;2022-07-05T05:22:40;17.60;99.90
20534;DHT22;12929;56.822;26.056;2022-07-05T05:25:09;17.60;99.90
20534;DHT22;12929;56.822;26.056;2022-07-05T05:27:41;17.70;99.90
20534;DHT22;12929;56.822;26.056;2022-07-05T05:30:16;17.70;99.90
20534;DHT22;12929;56.822;26.056;2022-07-05T05:32:44;17.60;99.90
20534;DHT22;12929;56.822;26.056;2022-07-05T05:35:12;17.70;99.90
20534;DHT22;12929;56.822;26.056;2022-07-05T05:37:50;17.80;99.90
20534;DHT22;12929;56.822;26.056;2022-07-05T05:40:18;17.80;99.90
20534;DHT22;12929;56.822;26.056;2022-07-05T05:42:47;17.80;99.90
20534;DHT22;12929;56.822;26.056;2022-07-05T05:45:15;17.80;99.90
20534;DHT22;12929;56.822;26.056;2022-07-05T05:47:46;17.80;99.90
20534;DHT22;12929;56.822;26.056;2022-07-05T05:50:15;17.80;99.90
20534;DHT22;12929;56.822;26.056;2022-07-05T05:52:45;17.90;99.90
20534;DHT22;12929;56.822;26.056;2022-07-05T05:55:12;17.90;99.90
20534;DHT22;12929;56.822;26.056;2022-07-05T05:57:41;17.90;99.90
20534;DHT22;12929;56.822;26.056;2022-07-05T06:00:09;18.00;99.90
20534;DHT22;12929;56.822;26.056;2022-07-05T06:02:38;18.00;99.90
20534;DHT22;12929;56.822;26.056;2022-07-05T06:05:08;18.00;99.90
20534;DHT22;12929;56.822;26.056;2022-07-05T06:07:52;18.10;99.90
20534;DHT22;12929;56.822;26.056;2022-07-05T06:10:31;18.10;99.90
20534;DHT22;12929;56.822;26.056;2022-07-05T06:13:01;18.10;99.90
20534;DHT22;12929;56.822;26.056;2022-07-05T06:15:28;18.00;99.90
20534;DHT22;12929;56.822;26.056;2022-07-05T06:17:55;18.10;99.90
20534;DHT22;12929;56.822;26.056;2022-07-05T06:20:26;18.20;99.90
20534;DHT22;12929;56.822;26.056;2022-07-05T06:22:55;18.20;99.90
20534;DHT22;12929;56.822;26.056;2022-07-05T06:25:23;18.20;99.90
20534;DHT22;12929;56.822;26.056;2022-07-05T06:27:53;18.20;99.90
20534;DHT22;12929;56.822;26.056;2022-07-05T06:30:22;18.20;99.90
20534;DHT22;12929;56.822;26.056;2022-07-05T06:32:50;18.20;99.90
20534;DHT22;12929;56.822;26.056;2022-07-05T06:35:19;18.20;99.90
20534;DHT22;12929;56.822;26.056;2022-07-05T06:40:27;18.10;99.90
20534;DHT22;12929;56.822;26.056;2022-07-05T06:42:58;18.10;99.90
20534;DHT22;12929;56.822;26.056;2022-07-05T06:45:44;18.20;99.90
20534;DHT22;12929;56.822;26.056;2022-07-05T06:48:13;18.20;99.90
20534;DHT22;12929;56.822;26.056;2022-07-05T06:50:42;18.20;99.90
20534;DHT22;12929;56.822;26.056;2022-07-05T06:53:10;18.30;99.90
20534;DHT22;12929;56.822;26.056;2022-07-05T06:55:39;18.30;99.90
20534;DHT22;12929;56.822;26.056;2022-07-05T06:58:19;18.30;99.90
20534;DHT22;12929;56.822;26.056;2022-07-05T07:00:46;18.30;99.90
20534;DHT22;12929;56.822;26.056;2022-07-05T07:03:34;18.40;99.90
20534;DHT22;12929;56.822;26.056;2022-07-05T07:06:22;18.40;99.90
20534;DHT22;12929;56.822;26.056;2022-07-05T07:08:50;18.40;99.90
20534;DHT22;12929;56.822;26.056;2022-07-05T07:11:35;18.40;99.90
20534;DHT22;12929;56.822;26.056;2022-07-05T07:14:02;18.40;99.90
20534;DHT22;12929;56.822;26.056;2022-07-05T07:16:30;18.40;99.90
20534;DHT22;12929;56.822;26.056;2022-07-05T07:18:57;18.40;99.90
20534;DHT22;12929;56.822;26.056;2022-07-05T07:21:42;18.40;99.90
20534;DHT22;12929;56.822;26.056;2022-07-05T07:24:11;18.30;99.90
20534;DHT22;12929;56.822;26.056;2022-07-05T07:26:39;18.40;99.90
20534;DHT22;12929;56.822;26.056;2022-07-05T07:29:26;18.40;99.90
20534;DHT22;12929;56.822;26.056;2022-07-05T07:31:54;18.50;99.90
20534;DHT22;12929;56.822;26.056;2022-07-05T07:34:22;18.50;99.90
20534;DHT22;12929;56.822;26.056;2022-07-05T07:36:50;18.60;99.90
20534;DHT22;12929;56.822;26.056;2022-07-05T07:39:18;18.70;99.90
20534;DHT22;12929;56.822;26.056;2022-07-05T07:41:46;18.80;99.90
20534;DHT22;12929;56.822;26.056;2022-07-05T07:44:14;18.80;99.90
20534;DHT22;12929;56.822;26.056;2022-07-05T07:46:41;18.80;99.90
20534;DHT22;12929;56.822;26.056;2022-07-05T07:49:09;18.80;99.90
20534;DHT22;12929;56.822;26.056;2022-07-05T07:51:37;19.00;99.90
20534;DHT22;12929;56.822;26.056;2022-07-05T07:54:05;19.00;99.90
20534;DHT22;12929;56.822;26.056;2022-07-05T07:56:32;18.90;99.90
20534;DHT22;12929;56.822;26.056;2022-07-05T07:59:00;18.90;99.90
20534;DHT22;12929;56.822;26.056;2022-07-05T08:01:28;18.90;99.90
20534;DHT22;12929;56.822;26.056;2022-07-05T08:03:55;18.90;99.90
20534;DHT22;12929;56.822;26.056;2022-07-05T08:06:23;19.00;99.90
20534;DHT22;12929;56.822;26.056;2022-07-05T08:08:51;19.10;99.90
20534;DHT22;12929;56.822;26.056;2022-07-05T08:11:19;19.20;99.90
20534;DHT22;12929;56.822;26.056;2022-07-05T08:13:46;19.20;99.90
20534;DHT22;12929;56.822;26.056;2022-07-05T08:16:15;19.00;99.90
20534;DHT22;12929;56.822;26.056;2022-07-05T08:18:42;18.90;99.90
20534;DHT22;12929;56.822;26.056;2022-07-05T08:21:28;19.10;99.90
20534;DHT22;12929;56.822;26.056;2022-07-05T08:24:09;19.20;99.90
20534;DHT22;12929;56.822;26.056;2022-07-05T08:26:38;19.10;99.90
20534;DHT22;12929;56.822;26.056;2022-07-05T08:29:08;19.20;99.90
20534;DHT22;12929;56.822;26.056;2022-07-05T08:31:41;19.30;99.90
20534;DHT22;12929;56.822;26.056;2022-07-05T08:34:10;19.30;99.90
20534;DHT22;12929;56.822;26.056;2022-07-05T08:36:38;19.20;99.90
20534;DHT22;12929;56.822;26.056;2022-07-05T08:39:09;19.10;99.90
20534;DHT22;12929;56.822;26.056;2022-07-05T08:41:38;19.00;99.90
20534;DHT22;12929;56.822;26.056;2022-07-05T08:44:08;19.00;99.90
20534;DHT22;12929;56.822;26.056;2022-07-05T08:46:39;19.10;99.90
20534;DHT22;12929;56.822;26.056;2022-07-05T08:49:10;19.20;99.90
20534;DHT22;12929;56.822;26.056;2022-07-05T08:51:41;19.20;99.90
20534;DHT22;12929;56.822;26.056;2022-07-05T08:54:11;19.10;99.90
20534;DHT22;12929;56.822;26.056;2022-07-05T08:56:46;19.00;99.90
20534;DHT22;12929;56.822;26.056;2022-07-05T08:59:33;19.00;99.90
20534;DHT22;12929;56.822;26.056;2022-07-05T09:02:02;19.10;99.90
20534;DHT22;12929;56.822;26.056;2022-07-05T09:04:35;19.40;99.90
20534;DHT22;12929;56.822;26.056;2022-07-05T09:07:05;19.60;99.90
20534;DHT22;12929;56.822;26.056;2022-07-05T09:09:39;19.50;99.90
20534;DHT22;12929;56.822;26.056;2022-07-05T09:12:13;19.40;99.90
20534;DHT22;12929;56.822;26.056;2022-07-05T09:14:54;19.50;99.90
20534;DHT22;12929;56.822;26.056;2022-07-05T09:17:26;19.60;99.90
20534;DHT22;12929;56.822;26.056;2022-07-05T09:22:51;19.70;99.90
20534;DHT22;12929;56.822;26.056;2022-07-05T09:25:30;19.90;99.90
20534;DHT22;12929;56.822;26.056;2022-07-05T09:28:00;20.10;99.90
20534;DHT22;12929;56.822;26.056;2022-07-05T09:33:14;20.30;99.90
20534;DHT22;12929;56.822;26.056;2022-07-05T09:35:55;20.30;99.90
20534;DHT22;12929;56.822;26.056;2022-07-05T09:38:28;20.30;99.90
20534;DHT22;12929;56.822;26.056;2022-07-05T09:40:57;20.40;99.90
20534;DHT22;12929;56.822;26.056;2022-07-05T09:43:27;20.40;99.90
20534;DHT22;12929;56.822;26.056;2022-07-05T09:46:01;20.50;99.90
20534;DHT22;12929;56.822;26.056;2022-07-05T09:48:31;20.40;99.90
20534;DHT22;12929;56.822;26.056;2022-07-05T09:51:09;20.30;99.90
20534;DHT22;12929;56.822;26.056;2022-07-05T09:53:58;20.20;99.90
20534;DHT22;12929;56.822;26.056;2022-07-05T09:56:29;20.10;99.90
20534;DHT22;12929;56.822;26.056;2022-07-05T09:59:14;20.20;99.90
20534;DHT22;12929;56.822;26.056;2022-07-05T10:01:43;20.40;99.90
20534;DHT22;12929;56.822;26.056;2022-07-05T10:04:10;20.40;99.90
20534;DHT22;12929;56.822;26.056;2022-07-05T10:06:38;20.40;99.90
20534;DHT22;12929;56.822;26.056;2022-07-05T10:09:08;20.60;99.90
20534;DHT22;12929;56.822;26.056;2022-07-05T10:11:40;20.60;99.90
20534;DHT22;12929;56.822;26.056;2022-07-05T10:14:17;20.60;99.90
20534;DHT22;12929;56.822;26.056;2022-07-05T10:16:56;20.60;99.90
20534;DHT22;12929;56.822;26.056;2022-07-05T10:19:31;20.70;99.90
20534;DHT22;12929;56.822;26.056;2022-07-05T10:22:01;20.70;99.90
20534;DHT22;12929;56.822;26.056;2022-07-05T10:24:46;20.70;99.90
20534;DHT22;12929;56.822;26.056;2022-07-05T10:27:17;20.80;99.90
20534;DHT22;12929;56.822;26.056;2022-07-05T10:29:45;20.90;99.90
20534;DHT22;12929;56.822;26.056;2022-07-05T10:32:14;21.00;99.90
20534;DHT22;12929;56.822;26.056;2022-07-05T10:34:42;20.90;99.90
20534;DHT22;12929;56.822;26.056;2022-07-05T10:37:27;21.00;99.90
20534;DHT22;12929;56.822;26.056;2022-07-05T10:40:00;21.10;99.90
20534;DHT22;12929;56.822;26.056;2022-07-05T10:42:40;21.10;99.90
20534;DHT22;12929;56.822;26.056;2022-07-05T10:45:32;21.10;99.90
20534;DHT22;12929;56.822;26.056;2022-07-05T10:48:12;21.20;99.90
20534;DHT22;12929;56.822;26.056;2022-07-05T10:50:51;21.40;99.90
20534;DHT22;12929;56.822;26.056;2022-07-05T10:53:21;21.40;99.90
20534;DHT22;12929;56.822;26.056;2022-07-05T10:58:37;21.00;99.90
20534;DHT22;12929;56.822;26.056;2022-07-05T11:14:38;21.70;99.90
20534;DHT22;12929;56.822;26.056;2022-07-05T11:25:24;21.50;99.90
20534;DHT22;12929;56.822;26.056;2022-07-05T11:28:40;21.50;99.90
20534;DHT22;12929;56.822;26.056;2022-07-05T11:30:59;21.60;99.90
20534;DHT22;12929;56.822;26.056;2022-07-05T11:33:36;21.80;99.90
20534;DHT22;12929;56.822;26.056;2022-07-05T11:36:06;21.60;99.90
20534;DHT22;12929;56.822;26.056;2022-07-05T11:38:34;21.40;99.90
20534;DHT22;12929;56.822;26.056;2022-07-05T11:41:39;21.60;99.90
20534;DHT22;12929;56.822;26.056;2022-07-05T11:44:08;21.60;99.90
20534;DHT22;12929;56.822;26.056;2022-07-05T11:46:37;21.80;99.90
20534;DHT22;12929;56.822;26.056;2022-07-05T11:49:22;21.90;99.90
20534;DHT22;12929;56.822;26.056;2022-07-05T11:51:57;22.20;99.90
20534;DHT22;12929;56.822;26.056;2022-07-05T11:54:30;22.30;99.90
20534;DHT22;12929;56.822;26.056;2022-07-05T11:56:59;22.40;99.90
20534;DHT22;12929;56.822;26.056;2022-07-05T11:59:27;22.60;99.90
20534;DHT22;12929;56.822;26.056;2022-07-05T12:01:55;22.50;99.90
20534;DHT22;12929;56.822;26.056;2022-07-05T12:04:24;22.60;99.90
20534;DHT22;12929;56.822;26.056;2022-07-05T12:06:53;22.50;99.90
20534;DHT22;12929;56.822;26.056;2022-07-05T12:09:29;22.50;99.90
20534;DHT22;12929;56.822;26.056;2022-07-05T12:12:20;22.30;99.90
20534;DHT22;12929;56.822;26.056;2022-07-05T12:15:08;22.00;99.90
20534;DHT22;12929;56.822;26.056;2022-07-05T12:17:39;22.30;99.90
20534;DHT22;12929;56.822;26.056;2022-07-05T12:20:08;22.40;99.90
20534;DHT22;12929;56.822;26.056;2022-07-05T12:22:38;22.50;99.90
20534;DHT22;12929;56.822;26.056;2022-07-05T12:25:08;22.60;99.90
20534;DHT22;12929;56.822;26.056;2022-07-05T12:27:38;22.40;99.90
20534;DHT22;12929;56.822;26.056;2022-07-05T12:30:08;22.30;99.90
20534;DHT22;12929;56.822;26.056;2022-07-05T12:35:31;21.70;99.90
20534;DHT22;12929;56.822;26.056;2022-07-05T12:38:07;21.60;99.90
20534;DHT22;12929;56.822;26.056;2022-07-05T12:40:36;21.50;99.90
20534;DHT22;12929;56.822;26.056;2022-07-05T12:43:12;21.40;99.90
20534;DHT22;12929;56.822;26.056;2022-07-05T12:46:06;21.60;99.90
20534;DHT22;12929;56.822;26.056;2022-07-05T12:48:34;21.70;99.90
20534;DHT22;12929;56.822;26.056;2022-07-05T12:51:02;21.90;99.90
20534;DHT22;12929;56.822;26.056;2022-07-05T12:53:50;21.90;99.90
20534;DHT22;12929;56.822;26.056;2022-07-05T12:56:36;21.60;99.90
20534;DHT22;12929;56.822;26.056;2022-07-05T13:02:53;21.80;99.90
20534;DHT22;12929;56.822;26.056;2022-07-05T13:05:22;22.00;99.90
20534;DHT22;12929;56.822;26.056;2022-07-05T13:07:51;22.20;99.90
20534;DHT22;12929;56.822;26.056;2022-07-05T13:10:23;22.20;99.90
20534;DHT22;12929;56.822;26.056;2022-07-05T13:12:51;22.30;99.90
20534;DHT22;12929;56.822;26.056;2022-07-05T13:15:19;22.10;99.90
20534;DHT22;12929;56.822;26.056;2022-07-05T13:17:46;22.00;99.90
20534;DHT22;12929;56.822;26.056;2022-07-05T13:20:19;22.00;99.90
20534;DHT22;12929;56.822;26.056;2022-07-05T13:22:50;21.80;99.90
20534;DHT22;12929;56.822;26.056;2022-07-05T13:25:17;21.80;99.90
20534;DHT22;12929;56.822;26.056;2022-07-05T13:27:45;21.90;99.90
20534;DHT22;12929;56.822;26.056;2022-07-05T13:30:13;22.10;99.90
20534;DHT22;12929;56.822;26.056;2022-07-05T13:32:41;22.20;99.90
20534;DHT22;12929;56.822;26.056;2022-07-05T13:35:08;22.20;99.90
20534;DHT22;12929;56.822;26.056;2022-07-05T13:37:36;22.00;99.90
20534;DHT22;12929;56.822;26.056;2022-07-05T13:40:04;21.80;99.90
20534;DHT22;12929;56.822;26.056;2022-07-05T13:42:32;21.80;99.90
20534;DHT22;12929;56.822;26.056;2022-07-05T13:44:59;21.90;99.90
20534;DHT22;12929;56.822;26.056;2022-07-05T13:47:27;21.90;99.90
20534;DHT22;12929;56.822;26.056;2022-07-05T13:49:54;22.20;99.90
20534;DHT22;12929;56.822;26.056;2022-07-05T13:52:42;22.50;99.90
20534;DHT22;12929;56.822;26.056;2022-07-05T13:55:09;22.70;99.90
20534;DHT22;12929;56.822;26.056;2022-07-05T13:57:37;22.90;99.90
20534;DHT22;12929;56.822;26.056;2022-07-05T14:00:05;22.80;99.90
20534;DHT22;12929;56.822;26.056;2022-07-05T14:02:33;22.90;99.90
20534;DHT22;12929;56.822;26.056;2022-07-05T14:05:01;23.20;99.90
20534;DHT22;12929;56.822;26.056;2022-07-05T14:07:28;23.20;99.90
20534;DHT22;12929;56.822;26.056;2022-07-05T14:09:55;23.10;99.90
20534;DHT22;12929;56.822;26.056;2022-07-05T14:12:23;23.10;99.90
20534;DHT22;12929;56.822;26.056;2022-07-05T14:14:51;23.10;99.90
20534;DHT22;12929;56.822;26.056;2022-07-05T14:17:18;23.40;99.90
20534;DHT22;12929;56.822;26.056;2022-07-05T14:19:46;23.50;99.90
20534;DHT22;12929;56.822;26.056;2022-07-05T14:22:13;23.40;99.90
20534;DHT22;12929;56.822;26.056;2022-07-05T14:24:41;23.00;99.90
20534;DHT22;12929;56.822;26.056;2022-07-05T14:27:08;22.70;99.90
20534;DHT22;12929;56.822;26.056;2022-07-05T14:29:36;22.70;99.90
20534;DHT22;12929;56.822;26.056;2022-07-05T14:32:04;22.90;99.90
20534;DHT22;12929;56.822;26.056;2022-07-05T14:34:32;23.00;99.90
20534;DHT22;12929;56.822;26.056;2022-07-05T14:36:59;23.10;99.90
20534;DHT22;12929;56.822;26.056;2022-07-05T14:39:27;23.30;99.90
20534;DHT22;12929;56.822;26.056;2022-07-05T14:41:55;23.60;99.90
20534;DHT22;12929;56.822;26.056;2022-07-05T14:44:22;23.60;99.90
20534;DHT22;12929;56.822;26.056;2022-07-05T14:46:50;23.60;99.90
20534;DHT22;12929;56.822;26.056;2022-07-05T14:49:18;23.50;99.90
20534;DHT22;12929;56.822;26.056;2022-07-05T14:51:45;23.70;99.90
20534;DHT22;12929;56.822;26.056;2022-07-05T14:54:12;23.60;99.90
20534;DHT22;12929;56.822;26.056;2022-07-05T14:56:40;23.50;99.90
20534;DHT22;12929;56.822;26.056;2022-07-05T14:59:08;23.50;99.90
20534;DHT22;12929;56.822;26.056;2022-07-05T15:01:35;23.50;99.90
20534;DHT22;12929;56.822;26.056;2022-07-05T15:04:03;23.30;99.90
20534;DHT22;12929;56.822;26.056;2022-07-05T15:06:31;23.20;99.90
20534;DHT22;12929;56.822;26.056;2022-07-05T15:08:58;23.30;99.90
20534;DHT22;12929;56.822;26.056;2022-07-05T15:11:26;23.60;99.90
20534;DHT22;12929;56.822;26.056;2022-07-05T15:13:55;23.60;99.90
20534;DHT22;12929;56.822;26.056;2022-07-05T15:16:22;23.80;99.90
20534;DHT22;12929;56.822;26.056;2022-07-05T15:18:50;23.90;99.90
20534;DHT22;12929;56.822;26.056;2022-07-05T15:21:18;23.90;99.90
20534;DHT22;12929;56.822;26.056;2022-07-05T15:23:45;23.80;99.90
20534;DHT22;12929;56.822;26.056;2022-07-05T15:26:33;23.90;99.90
20534;DHT22;12929;56.822;26.056;2022-07-05T15:29:05;23.80;99.90
20534;DHT22;12929;56.822;26.056;2022-07-05T15:31:35;23.90;99.90
20534;DHT22;12929;56.822;26.056;2022-07-05T15:34:04;23.90;99.90
20534;DHT22;12929;56.822;26.056;2022-07-05T15:36:32;23.90;99.90
20534;DHT22;12929;56.822;26.056;2022-07-05T15:39:02;23.70;99.90
20534;DHT22;12929;56.822;26.056;2022-07-05T15:41:32;23.30;99.90
20534;DHT22;12929;56.822;26.056;2022-07-05T15:44:00;23.00;99.90
20534;DHT22;12929;56.822;26.056;2022-07-05T15:46:28;23.00;99.90
20534;DHT22;12929;56.822;26.056;2022-07-05T15:49:16;23.10;99.90
20534;DHT22;12929;56.822;26.056;2022-07-05T15:51:44;23.00;99.90
20534;DHT22;12929;56.822;26.056;2022-07-05T15:54:12;23.00;99.90
20534;DHT22;12929;56.822;26.056;2022-07-05T15:56:39;22.80;99.90
20534;DHT22;12929;56.822;26.056;2022-07-05T15:59:08;23.00;99.90
20534;DHT22;12929;56.822;26.056;2022-07-05T16:01:36;23.10;99.90
20534;DHT22;12929;56.822;26.056;2022-07-05T16:04:05;23.30;99.90
20534;DHT22;12929;56.822;26.056;2022-07-05T16:06:33;23.30;99.90
20534;DHT22;12929;56.822;26.056;2022-07-05T16:09:00;23.30;99.90
20534;DHT22;12929;56.822;26.056;2022-07-05T16:11:28;23.20;99.90
20534;DHT22;12929;56.822;26.056;2022-07-05T16:13:55;23.20;99.90
20534;DHT22;12929;56.822;26.056;2022-07-05T16:16:23;23.00;99.90